sensor_id;sensor_type;location;lat;lon;timestamp;P1;durP1;ratioP1;P2;durP2;ratioP2
37895;SDS011;23733;53.254;10.430;2022-10-16T00:01:41;7.93;;;3.60;;
37895;SDS011;23733;53.254;10.430;2022-10-16T00:04:08;3.27;;;2.90;;
37895;SDS011;23733;53.254;10.430;2022-10-16T00:06:34;6.40;;;3.43;;
37895;SDS011;23733;53.254;10.430;2022-10-16T00:09:00;6.03;;;2.93;;
37895;SDS011;23733;53.254;10.430;2022-10-16T00:11:32;5.93;;;3.20;;
37895;SDS011;23733;53.254;10.430;2022-10-16T00:14:03;3.60;;;2.70;;
37895;SDS011;23733;53.254;10.430;2022-10-16T00:16:31;3.47;;;3.10;;
37895;SDS011;23733;53.254;10.430;2022-10-16T00:18:57;3.30;;;2.77;;
37895;SDS011;23733;53.254;10.430;2022-10-16T00:21:24;3.47;;;2.80;;
37895;SDS011;23733;53.254;10.430;2022-10-16T00:23:56;3.77;;;2.90;;
37895;SDS011;23733;53.254;10.430;2022-10-16T00:26:24;7.40;;;2.97;;
37895;SDS011;23733;53.254;10.430;2022-10-16T00:28:51;3.40;;;3.07;;
37895;SDS011;23733;53.254;10.430;2022-10-16T00:31:18;3.50;;;2.80;;
37895;SDS011;23733;53.254;10.430;2022-10-16T00:33:45;4.00;;;2.70;;
37895;SDS011;23733;53.254;10.430;2022-10-16T00:36:12;4.77;;;2.77;;
37895;SDS011;23733;53.254;10.430;2022-10-16T00:38:40;3.13;;;2.57;;
37895;SDS011;23733;53.254;10.430;2022-10-16T00:41:09;5.43;;;2.90;;
37895;SDS011;23733;53.254;10.430;2022-10-16T00:48:39;3.60;;;2.40;;
37895;SDS011;23733;53.254;10.430;2022-10-16T00:51:06;3.83;;;2.50;;
37895;SDS011;23733;53.254;10.430;2022-10-16T00:53:33;4.40;;;2.60;;
37895;SDS011;23733;53.254;10.430;2022-10-16T00:56:00;3.37;;;2.57;;
37895;SDS011;23733;53.254;10.430;2022-10-16T00:58:27;4.23;;;2.07;;
37895;SDS011;23733;53.254;10.430;2022-10-16T01:00:53;3.77;;;2.57;;
37895;SDS011;23733;53.254;10.430;2022-10-16T01:03:37;4.67;;;2.17;;
37895;SDS011;23733;53.254;10.430;2022-10-16T01:06:12;4.80;;;2.50;;
37895;SDS011;23733;53.254;10.430;2022-10-16T01:09:05;3.87;;;2.00;;
37895;SDS011;23733;53.254;10.430;2022-10-16T01:11:49;4.10;;;2.20;;
37895;SDS011;23733;53.254;10.430;2022-10-16T01:14:32;3.60;;;2.27;;
37895;SDS011;23733;53.254;10.430;2022-10-16T01:17:25;3.63;;;2.27;;
37895;SDS011;23733;53.254;10.430;2022-10-16T01:20:40;3.63;;;2.30;;
37895;SDS011;23733;53.254;10.430;2022-10-16T01:25:56;5.97;;;2.37;;
37895;SDS011;23733;53.254;10.430;2022-10-16T01:28:39;3.77;;;2.23;;
37895;SDS011;23733;53.254;10.430;2022-10-16T01:31:11;4.17;;;2.23;;
37895;SDS011;23733;53.254;10.430;2022-10-16T01:33:45;4.30;;;1.90;;
37895;SDS011;23733;53.254;10.430;2022-10-16T01:36:18;6.00;;;2.30;;
37895;SDS011;23733;53.254;10.430;2022-10-16T01:38:49;3.20;;;1.90;;
37895;SDS011;23733;53.254;10.430;2022-10-16T01:41:33;2.50;;;1.57;;
37895;SDS011;23733;53.254;10.430;2022-10-16T01:44:05;4.07;;;1.70;;
37895;SDS011;23733;53.254;10.430;2022-10-16T01:46:39;3.73;;;1.80;;
37895;SDS011;23733;53.254;10.430;2022-10-16T01:49:10;2.63;;;1.70;;
37895;SDS011;23733;53.254;10.430;2022-10-16T01:51:37;4.27;;;1.80;;
37895;SDS011;23733;53.254;10.430;2022-10-16T01:54:04;3.97;;;1.50;;
37895;SDS011;23733;53.254;10.430;2022-10-16T01:56:33;2.60;;;1.83;;
37895;SDS011;23733;53.254;10.430;2022-10-16T01:59:06;2.83;;;1.30;;
37895;SDS011;23733;53.254;10.430;2022-10-16T02:01:36;2.23;;;1.40;;
37895;SDS011;23733;53.254;10.430;2022-10-16T02:04:13;3.17;;;1.57;;
37895;SDS011;23733;53.254;10.430;2022-10-16T02:06:48;3.70;;;1.60;;
37895;SDS011;23733;53.254;10.430;2022-10-16T02:09:14;2.27;;;1.27;;
37895;SDS011;23733;53.254;10.430;2022-10-16T02:11:42;3.97;;;1.40;;
37895;SDS011;23733;53.254;10.430;2022-10-16T02:14:09;3.43;;;1.60;;
37895;SDS011;23733;53.254;10.430;2022-10-16T02:16:36;3.50;;;1.30;;
37895;SDS011;23733;53.254;10.430;2022-10-16T02:19:05;8.10;;;1.60;;
37895;SDS011;23733;53.254;10.430;2022-10-16T02:21:43;5.67;;;1.50;;
37895;SDS011;23733;53.254;10.430;2022-10-16T02:24:19;2.83;;;1.30;;
37895;SDS011;23733;53.254;10.430;2022-10-16T02:27:11;5.40;;;1.50;;
37895;SDS011;23733;53.254;10.430;2022-10-16T02:29:49;2.07;;;1.30;;
37895;SDS011;23733;53.254;10.430;2022-10-16T02:32:26;5.27;;;1.40;;
37895;SDS011;23733;53.254;10.430;2022-10-16T02:34:55;2.27;;;1.23;;
37895;SDS011;23733;53.254;10.430;2022-10-16T02:37:23;3.00;;;1.47;;
37895;SDS011;23733;53.254;10.430;2022-10-16T02:39:50;4.03;;;1.30;;
37895;SDS011;23733;53.254;10.430;2022-10-16T02:42:17;3.23;;;1.27;;
37895;SDS011;23733;53.254;10.430;2022-10-16T02:44:44;4.10;;;1.40;;
37895;SDS011;23733;53.254;10.430;2022-10-16T02:47:10;1.77;;;1.07;;
37895;SDS011;23733;53.254;10.430;2022-10-16T02:49:36;4.60;;;1.40;;
37895;SDS011;23733;53.254;10.430;2022-10-16T02:52:02;2.83;;;1.20;;
37895;SDS011;23733;53.254;10.430;2022-10-16T02:54:28;3.37;;;1.50;;
37895;SDS011;23733;53.254;10.430;2022-10-16T02:56:54;1.83;;;1.30;;
37895;SDS011;23733;53.254;10.430;2022-10-16T02:59:20;3.87;;;1.33;;
37895;SDS011;23733;53.254;10.430;2022-10-16T03:01:46;2.93;;;1.47;;
37895;SDS011;23733;53.254;10.430;2022-10-16T03:04:12;2.93;;;1.20;;
37895;SDS011;23733;53.254;10.430;2022-10-16T03:06:38;5.00;;;1.50;;
37895;SDS011;23733;53.254;10.430;2022-10-16T03:09:04;3.03;;;1.20;;
37895;SDS011;23733;53.254;10.430;2022-10-16T03:11:30;2.37;;;1.10;;
37895;SDS011;23733;53.254;10.430;2022-10-16T03:13:56;2.77;;;1.30;;
37895;SDS011;23733;53.254;10.430;2022-10-16T03:16:23;1.67;;;1.20;;
37895;SDS011;23733;53.254;10.430;2022-10-16T03:18:49;2.63;;;1.03;;
37895;SDS011;23733;53.254;10.430;2022-10-16T03:21:15;4.03;;;1.50;;
37895;SDS011;23733;53.254;10.430;2022-10-16T03:23:42;4.43;;;1.17;;
37895;SDS011;23733;53.254;10.430;2022-10-16T03:26:08;4.07;;;1.43;;
37895;SDS011;23733;53.254;10.430;2022-10-16T03:28:34;5.03;;;1.30;;
37895;SDS011;23733;53.254;10.430;2022-10-16T03:31:00;2.50;;;1.30;;
37895;SDS011;23733;53.254;10.430;2022-10-16T03:33:26;1.97;;;1.30;;
37895;SDS011;23733;53.254;10.430;2022-10-16T03:35:52;8.17;;;2.17;;
37895;SDS011;23733;53.254;10.430;2022-10-16T03:38:19;3.07;;;1.30;;
37895;SDS011;23733;53.254;10.430;2022-10-16T03:40:46;4.67;;;1.27;;
37895;SDS011;23733;53.254;10.430;2022-10-16T03:43:13;3.23;;;1.30;;
37895;SDS011;23733;53.254;10.430;2022-10-16T03:45:39;2.77;;;1.30;;
37895;SDS011;23733;53.254;10.430;2022-10-16T03:48:05;3.27;;;1.23;;
37895;SDS011;23733;53.254;10.430;2022-10-16T03:50:31;2.93;;;1.30;;
37895;SDS011;23733;53.254;10.430;2022-10-16T03:52:57;3.00;;;1.40;;
37895;SDS011;23733;53.254;10.430;2022-10-16T03:55:23;2.53;;;1.17;;
37895;SDS011;23733;53.254;10.430;2022-10-16T03:57:49;2.87;;;1.40;;
37895;SDS011;23733;53.254;10.430;2022-10-16T04:00:15;3.83;;;1.47;;
37895;SDS011;23733;53.254;10.430;2022-10-16T04:02:41;4.27;;;1.57;;
37895;SDS011;23733;53.254;10.430;2022-10-16T04:05:07;5.20;;;1.57;;
37895;SDS011;23733;53.254;10.430;2022-10-16T04:07:33;5.93;;;2.10;;
37895;SDS011;23733;53.254;10.430;2022-10-16T04:10:00;3.23;;;1.40;;
37895;SDS011;23733;53.254;10.430;2022-10-16T04:12:26;2.13;;;1.30;;
37895;SDS011;23733;53.254;10.430;2022-10-16T04:14:52;3.67;;;1.30;;
37895;SDS011;23733;53.254;10.430;2022-10-16T04:17:18;2.63;;;1.50;;
37895;SDS011;23733;53.254;10.430;2022-10-16T04:19:45;2.80;;;1.30;;
37895;SDS011;23733;53.254;10.430;2022-10-16T04:22:11;3.80;;;1.50;;
37895;SDS011;23733;53.254;10.430;2022-10-16T04:24:37;2.57;;;1.43;;
37895;SDS011;23733;53.254;10.430;2022-10-16T04:27:03;4.07;;;1.40;;
37895;SDS011;23733;53.254;10.430;2022-10-16T04:29:29;2.70;;;1.40;;
37895;SDS011;23733;53.254;10.430;2022-10-16T04:31:55;3.43;;;1.60;;
37895;SDS011;23733;53.254;10.430;2022-10-16T04:34:21;1.60;;;1.27;;
37895;SDS011;23733;53.254;10.430;2022-10-16T04:36:47;3.90;;;1.70;;
37895;SDS011;23733;53.254;10.430;2022-10-16T04:39:16;5.93;;;1.90;;
37895;SDS011;23733;53.254;10.430;2022-10-16T04:41:43;3.80;;;2.10;;
37895;SDS011;23733;53.254;10.430;2022-10-16T04:44:09;4.37;;;1.70;;
37895;SDS011;23733;53.254;10.430;2022-10-16T04:46:35;2.60;;;1.33;;
37895;SDS011;23733;53.254;10.430;2022-10-16T04:49:01;6.30;;;1.63;;
37895;SDS011;23733;53.254;10.430;2022-10-16T04:51:27;4.37;;;1.80;;
37895;SDS011;23733;53.254;10.430;2022-10-16T04:53:53;2.83;;;1.50;;
37895;SDS011;23733;53.254;10.430;2022-10-16T04:56:20;4.17;;;1.70;;
37895;SDS011;23733;53.254;10.430;2022-10-16T04:58:47;3.37;;;1.70;;
37895;SDS011;23733;53.254;10.430;2022-10-16T05:01:13;5.00;;;1.87;;
37895;SDS011;23733;53.254;10.430;2022-10-16T05:03:39;6.83;;;2.00;;
37895;SDS011;23733;53.254;10.430;2022-10-16T05:06:05;3.63;;;1.63;;
37895;SDS011;23733;53.254;10.430;2022-10-16T05:08:32;5.67;;;1.67;;
37895;SDS011;23733;53.254;10.430;2022-10-16T05:10:58;3.20;;;1.53;;
37895;SDS011;23733;53.254;10.430;2022-10-16T05:13:24;4.43;;;1.70;;
37895;SDS011;23733;53.254;10.430;2022-10-16T05:15:50;5.90;;;1.60;;
37895;SDS011;23733;53.254;10.430;2022-10-16T05:18:16;6.27;;;1.90;;
37895;SDS011;23733;53.254;10.430;2022-10-16T05:20:42;4.00;;;2.10;;
37895;SDS011;23733;53.254;10.430;2022-10-16T05:23:08;7.23;;;2.03;;
37895;SDS011;23733;53.254;10.430;2022-10-16T05:25:35;5.07;;;1.80;;
37895;SDS011;23733;53.254;10.430;2022-10-16T05:28:02;2.03;;;1.57;;
37895;SDS011;23733;53.254;10.430;2022-10-16T05:30:28;4.50;;;2.53;;
37895;SDS011;23733;53.254;10.430;2022-10-16T05:32:54;5.50;;;2.10;;
37895;SDS011;23733;53.254;10.430;2022-10-16T05:35:20;4.20;;;2.17;;
37895;SDS011;23733;53.254;10.430;2022-10-16T05:37:47;5.97;;;1.90;;
37895;SDS011;23733;53.254;10.430;2022-10-16T05:40:13;5.60;;;1.50;;
37895;SDS011;23733;53.254;10.430;2022-10-16T05:42:40;6.00;;;1.50;;
37895;SDS011;23733;53.254;10.430;2022-10-16T05:45:06;7.27;;;1.80;;
37895;SDS011;23733;53.254;10.430;2022-10-16T05:47:35;4.40;;;1.40;;
37895;SDS011;23733;53.254;10.430;2022-10-16T05:50:01;5.13;;;1.40;;
37895;SDS011;23733;53.254;10.430;2022-10-16T05:52:29;3.43;;;1.70;;
37895;SDS011;23733;53.254;10.430;2022-10-16T05:54:55;6.23;;;1.80;;
37895;SDS011;23733;53.254;10.430;2022-10-16T05:57:21;4.60;;;1.63;;
37895;SDS011;23733;53.254;10.430;2022-10-16T05:59:47;5.13;;;1.90;;
37895;SDS011;23733;53.254;10.430;2022-10-16T06:02:13;2.87;;;1.80;;
37895;SDS011;23733;53.254;10.430;2022-10-16T06:04:40;5.27;;;1.90;;
37895;SDS011;23733;53.254;10.430;2022-10-16T06:07:06;3.67;;;1.80;;
37895;SDS011;23733;53.254;10.430;2022-10-16T06:09:32;4.40;;;1.73;;
37895;SDS011;23733;53.254;10.430;2022-10-16T06:11:58;4.87;;;1.90;;
37895;SDS011;23733;53.254;10.430;2022-10-16T06:14:24;4.30;;;1.60;;
37895;SDS011;23733;53.254;10.430;2022-10-16T06:16:50;4.13;;;1.80;;
37895;SDS011;23733;53.254;10.430;2022-10-16T06:19:16;6.80;;;2.10;;
37895;SDS011;23733;53.254;10.430;2022-10-16T06:21:42;3.27;;;1.73;;
37895;SDS011;23733;53.254;10.430;2022-10-16T06:24:09;4.97;;;2.03;;
37895;SDS011;23733;53.254;10.430;2022-10-16T06:26:35;1.97;;;1.50;;
37895;SDS011;23733;53.254;10.430;2022-10-16T06:29:01;3.23;;;1.80;;
37895;SDS011;23733;53.254;10.430;2022-10-16T06:31:28;4.10;;;1.60;;
37895;SDS011;23733;53.254;10.430;2022-10-16T06:33:56;8.37;;;1.73;;
37895;SDS011;23733;53.254;10.430;2022-10-16T06:36:23;4.40;;;1.77;;
37895;SDS011;23733;53.254;10.430;2022-10-16T06:38:50;4.50;;;1.60;;
37895;SDS011;23733;53.254;10.430;2022-10-16T06:41:17;4.50;;;1.70;;
37895;SDS011;23733;53.254;10.430;2022-10-16T06:43:45;6.30;;;1.90;;
37895;SDS011;23733;53.254;10.430;2022-10-16T06:46:12;2.33;;;1.50;;
37895;SDS011;23733;53.254;10.430;2022-10-16T06:48:40;2.80;;;1.70;;
37895;SDS011;23733;53.254;10.430;2022-10-16T06:51:10;4.33;;;1.33;;
37895;SDS011;23733;53.254;10.430;2022-10-16T06:53:39;3.80;;;1.73;;
37895;SDS011;23733;53.254;10.430;2022-10-16T06:58:33;3.17;;;1.47;;
37895;SDS011;23733;53.254;10.430;2022-10-16T07:00:59;7.33;;;1.80;;
37895;SDS011;23733;53.254;10.430;2022-10-16T07:03:25;5.07;;;2.00;;
37895;SDS011;23733;53.254;10.430;2022-10-16T07:05:51;6.53;;;1.77;;
37895;SDS011;23733;53.254;10.430;2022-10-16T07:08:17;2.57;;;1.40;;
37895;SDS011;23733;53.254;10.430;2022-10-16T07:10:43;3.10;;;1.60;;
37895;SDS011;23733;53.254;10.430;2022-10-16T07:13:09;2.63;;;1.60;;
37895;SDS011;23733;53.254;10.430;2022-10-16T07:15:38;5.87;;;1.70;;
37895;SDS011;23733;53.254;10.430;2022-10-16T07:18:04;3.60;;;1.70;;
37895;SDS011;23733;53.254;10.430;2022-10-16T07:20:30;2.90;;;1.40;;
37895;SDS011;23733;53.254;10.430;2022-10-16T07:22:56;4.10;;;1.60;;
37895;SDS011;23733;53.254;10.430;2022-10-16T07:25:22;2.43;;;1.57;;
37895;SDS011;23733;53.254;10.430;2022-10-16T07:27:48;5.80;;;1.67;;
37895;SDS011;23733;53.254;10.430;2022-10-16T07:30:14;5.13;;;1.80;;
37895;SDS011;23733;53.254;10.430;2022-10-16T07:32:40;5.07;;;1.63;;
37895;SDS011;23733;53.254;10.430;2022-10-16T07:35:06;4.37;;;1.63;;
37895;SDS011;23733;53.254;10.430;2022-10-16T07:37:33;7.63;;;1.60;;
37895;SDS011;23733;53.254;10.430;2022-10-16T07:39:59;3.60;;;1.80;;
37895;SDS011;23733;53.254;10.430;2022-10-16T07:42:26;3.53;;;1.77;;
37895;SDS011;23733;53.254;10.430;2022-10-16T07:44:52;6.87;;;1.70;;
37895;SDS011;23733;53.254;10.430;2022-10-16T07:47:18;2.47;;;1.80;;
37895;SDS011;23733;53.254;10.430;2022-10-16T07:49:46;4.27;;;1.90;;
37895;SDS011;23733;53.254;10.430;2022-10-16T07:52:12;4.67;;;1.80;;
37895;SDS011;23733;53.254;10.430;2022-10-16T07:54:38;4.87;;;1.83;;
37895;SDS011;23733;53.254;10.430;2022-10-16T07:57:04;6.33;;;1.93;;
37895;SDS011;23733;53.254;10.430;2022-10-16T07:59:30;6.60;;;2.00;;
37895;SDS011;23733;53.254;10.430;2022-10-16T08:01:55;3.67;;;2.10;;
37895;SDS011;23733;53.254;10.430;2022-10-16T08:04:22;4.20;;;2.23;;
37895;SDS011;23733;53.254;10.430;2022-10-16T08:06:48;3.27;;;1.90;;
37895;SDS011;23733;53.254;10.430;2022-10-16T08:09:15;3.43;;;1.90;;
37895;SDS011;23733;53.254;10.430;2022-10-16T08:11:41;2.90;;;1.80;;
37895;SDS011;23733;53.254;10.430;2022-10-16T08:14:07;4.23;;;1.80;;
37895;SDS011;23733;53.254;10.430;2022-10-16T08:16:33;3.90;;;1.70;;
37895;SDS011;23733;53.254;10.430;2022-10-16T08:18:59;4.53;;;2.17;;
37895;SDS011;23733;53.254;10.430;2022-10-16T08:21:25;4.87;;;2.13;;
37895;SDS011;23733;53.254;10.430;2022-10-16T08:23:52;2.77;;;1.53;;
37895;SDS011;23733;53.254;10.430;2022-10-16T08:26:19;2.87;;;1.60;;
37895;SDS011;23733;53.254;10.430;2022-10-16T08:28:45;3.00;;;1.53;;
37895;SDS011;23733;53.254;10.430;2022-10-16T08:31:15;3.53;;;1.50;;
37895;SDS011;23733;53.254;10.430;2022-10-16T08:33:43;2.80;;;1.57;;
37895;SDS011;23733;53.254;10.430;2022-10-16T08:36:12;4.23;;;1.67;;
37895;SDS011;23733;53.254;10.430;2022-10-16T08:38:39;2.40;;;1.50;;
37895;SDS011;23733;53.254;10.430;2022-10-16T08:47:20;3.23;;;1.50;;
37895;SDS011;23733;53.254;10.430;2022-10-16T08:49:31;3.73;;;1.47;;
37895;SDS011;23733;53.254;10.430;2022-10-16T08:51:57;3.37;;;1.40;;
37895;SDS011;23733;53.254;10.430;2022-10-16T08:54:34;2.73;;;1.47;;
37895;SDS011;23733;53.254;10.430;2022-10-16T08:57:11;7.00;;;1.60;;
37895;SDS011;23733;53.254;10.430;2022-10-16T08:59:39;4.93;;;1.80;;
37895;SDS011;23733;53.254;10.430;2022-10-16T09:02:17;2.00;;;1.57;;
37895;SDS011;23733;53.254;10.430;2022-10-16T09:05:22;2.73;;;1.40;;
37895;SDS011;23733;53.254;10.430;2022-10-16T09:08:09;3.53;;;1.37;;
37895;SDS011;23733;53.254;10.430;2022-10-16T09:13:48;2.70;;;1.87;;
37895;SDS011;23733;53.254;10.430;2022-10-16T09:16:45;1.70;;;1.20;;
37895;SDS011;23733;53.254;10.430;2022-10-16T09:19:29;8.43;;;1.40;;
37895;SDS011;23733;53.254;10.430;2022-10-16T09:22:04;3.00;;;1.30;;
37895;SDS011;23733;53.254;10.430;2022-10-16T09:24:37;1.73;;;1.20;;
37895;SDS011;23733;53.254;10.430;2022-10-16T09:27:03;6.10;;;1.37;;
37895;SDS011;23733;53.254;10.430;2022-10-16T09:29:29;1.97;;;1.10;;
37895;SDS011;23733;53.254;10.430;2022-10-16T09:31:56;2.03;;;1.10;;
37895;SDS011;23733;53.254;10.430;2022-10-16T09:36:50;1.30;;;1.10;;
37895;SDS011;23733;53.254;10.430;2022-10-16T09:39:16;1.70;;;1.20;;
37895;SDS011;23733;53.254;10.430;2022-10-16T09:41:43;4.40;;;1.07;;
37895;SDS011;23733;53.254;10.430;2022-10-16T09:44:21;1.77;;;1.07;;
37895;SDS011;23733;53.254;10.430;2022-10-16T09:46:48;5.83;;;1.40;;
37895;SDS011;23733;53.254;10.430;2022-10-16T09:49:22;1.70;;;1.10;;
37895;SDS011;23733;53.254;10.430;2022-10-16T09:51:48;2.80;;;1.00;;
37895;SDS011;23733;53.254;10.430;2022-10-16T09:54:19;3.63;;;1.00;;
37895;SDS011;23733;53.254;10.430;2022-10-16T09:56:46;2.10;;;1.07;;
37895;SDS011;23733;53.254;10.430;2022-10-16T09:59:21;2.63;;;1.00;;
37895;SDS011;23733;53.254;10.430;2022-10-16T10:01:53;2.90;;;1.00;;
37895;SDS011;23733;53.254;10.430;2022-10-16T10:04:21;3.57;;;1.03;;
37895;SDS011;23733;53.254;10.430;2022-10-16T10:09:22;2.53;;;1.03;;
37895;SDS011;23733;53.254;10.430;2022-10-16T10:11:56;3.00;;;0.83;;
37895;SDS011;23733;53.254;10.430;2022-10-16T10:14:27;3.90;;;1.00;;
37895;SDS011;23733;53.254;10.430;2022-10-16T10:19:37;4.40;;;1.00;;
37895;SDS011;23733;53.254;10.430;2022-10-16T10:25:14;3.37;;;1.07;;
37895;SDS011;23733;53.254;10.430;2022-10-16T10:33:28;4.10;;;1.80;;
37895;SDS011;23733;53.254;10.430;2022-10-16T10:41:22;3.07;;;0.90;;
37895;SDS011;23733;53.254;10.430;2022-10-16T10:44:03;2.77;;;1.03;;
37895;SDS011;23733;53.254;10.430;2022-10-16T10:46:49;2.97;;;0.90;;
37895;SDS011;23733;53.254;10.430;2022-10-16T10:49:39;3.63;;;1.00;;
37895;SDS011;23733;53.254;10.430;2022-10-16T10:54:48;2.47;;;1.17;;
37895;SDS011;23733;53.254;10.430;2022-10-16T10:57:30;3.93;;;0.90;;
37895;SDS011;23733;53.254;10.430;2022-10-16T11:02:57;1.43;;;0.77;;
37895;SDS011;23733;53.254;10.430;2022-10-16T11:06:28;4.33;;;1.07;;
37895;SDS011;23733;53.254;10.430;2022-10-16T11:08:41;2.60;;;0.97;;
37895;SDS011;23733;53.254;10.430;2022-10-16T11:11:20;1.60;;;0.73;;
37895;SDS011;23733;53.254;10.430;2022-10-16T11:13:55;3.93;;;1.13;;
37895;SDS011;23733;53.254;10.430;2022-10-16T11:16:27;2.33;;;1.10;;
37895;SDS011;23733;53.254;10.430;2022-10-16T11:19:11;2.50;;;1.00;;
37895;SDS011;23733;53.254;10.430;2022-10-16T11:21:44;2.47;;;0.90;;
37895;SDS011;23733;53.254;10.430;2022-10-16T11:24:18;2.27;;;0.90;;
37895;SDS011;23733;53.254;10.430;2022-10-16T11:26:48;2.13;;;0.93;;
37895;SDS011;23733;53.254;10.430;2022-10-16T11:29:25;4.80;;;1.10;;
37895;SDS011;23733;53.254;10.430;2022-10-16T11:31:55;5.03;;;1.00;;
37895;SDS011;23733;53.254;10.430;2022-10-16T11:34:44;6.20;;;0.90;;
37895;SDS011;23733;53.254;10.430;2022-10-16T11:37:19;2.47;;;1.00;;
37895;SDS011;23733;53.254;10.430;2022-10-16T11:39:52;4.43;;;1.00;;
37895;SDS011;23733;53.254;10.430;2022-10-16T11:42:27;1.50;;;0.90;;
37895;SDS011;23733;53.254;10.430;2022-10-16T11:45:19;1.67;;;0.93;;
37895;SDS011;23733;53.254;10.430;2022-10-16T11:48:45;4.10;;;1.00;;
37895;SDS011;23733;53.254;10.430;2022-10-16T11:51:19;3.67;;;1.00;;
37895;SDS011;23733;53.254;10.430;2022-10-16T11:54:43;1.53;;;0.70;;
37895;SDS011;23733;53.254;10.430;2022-10-16T11:56:49;4.63;;;0.90;;
37895;SDS011;23733;53.254;10.430;2022-10-16T12:02:20;3.10;;;1.00;;
37895;SDS011;23733;53.254;10.430;2022-10-16T12:05:16;1.53;;;0.80;;
37895;SDS011;23733;53.254;10.430;2022-10-16T12:07:55;1.80;;;0.90;;
37895;SDS011;23733;53.254;10.430;2022-10-16T12:10:34;5.60;;;1.10;;
37895;SDS011;23733;53.254;10.430;2022-10-16T12:13:05;2.53;;;1.13;;
37895;SDS011;23733;53.254;10.430;2022-10-16T12:15:49;3.57;;;1.10;;
37895;SDS011;23733;53.254;10.430;2022-10-16T12:18:22;2.80;;;1.20;;
37895;SDS011;23733;53.254;10.430;2022-10-16T12:20:56;3.43;;;1.33;;
37895;SDS011;23733;53.254;10.430;2022-10-16T12:23:25;1.77;;;0.77;;
37895;SDS011;23733;53.254;10.430;2022-10-16T12:25:58;3.90;;;1.10;;
37895;SDS011;23733;53.254;10.430;2022-10-16T12:28:26;8.50;;;1.17;;
37895;SDS011;23733;53.254;10.430;2022-10-16T12:31:01;3.67;;;1.10;;
37895;SDS011;23733;53.254;10.430;2022-10-16T12:33:30;4.63;;;1.00;;
37895;SDS011;23733;53.254;10.430;2022-10-16T12:35:59;2.60;;;1.00;;
37895;SDS011;23733;53.254;10.430;2022-10-16T12:38:29;3.13;;;1.20;;
37895;SDS011;23733;53.254;10.430;2022-10-16T12:41:26;5.10;;;1.10;;
37895;SDS011;23733;53.254;10.430;2022-10-16T12:43:55;2.47;;;1.10;;
37895;SDS011;23733;53.254;10.430;2022-10-16T12:46:22;2.20;;;1.10;;
37895;SDS011;23733;53.254;10.430;2022-10-16T12:49:21;3.80;;;1.00;;
37895;SDS011;23733;53.254;10.430;2022-10-16T12:51:53;4.43;;;1.33;;
37895;SDS011;23733;53.254;10.430;2022-10-16T12:54:22;4.43;;;1.13;;
37895;SDS011;23733;53.254;10.430;2022-10-16T12:57:10;3.97;;;1.27;;
37895;SDS011;23733;53.254;10.430;2022-10-16T13:03:01;3.27;;;1.10;;
37895;SDS011;23733;53.254;10.430;2022-10-16T13:13:54;3.73;;;1.30;;
37895;SDS011;23733;53.254;10.430;2022-10-16T13:19:35;4.10;;;1.23;;
37895;SDS011;23733;53.254;10.430;2022-10-16T13:30:26;4.43;;;1.10;;
37895;SDS011;23733;53.254;10.430;2022-10-16T13:35:46;3.50;;;1.17;;
37895;SDS011;23733;53.254;10.430;2022-10-16T13:38:23;2.73;;;1.00;;
37895;SDS011;23733;53.254;10.430;2022-10-16T13:40:55;2.87;;;1.10;;
37895;SDS011;23733;53.254;10.430;2022-10-16T13:43:31;4.30;;;1.20;;
37895;SDS011;23733;53.254;10.430;2022-10-16T13:45:59;4.87;;;1.03;;
37895;SDS011;23733;53.254;10.430;2022-10-16T13:48:28;3.30;;;0.93;;
37895;SDS011;23733;53.254;10.430;2022-10-16T13:50:59;3.87;;;1.20;;
37895;SDS011;23733;53.254;10.430;2022-10-16T13:53:26;2.93;;;0.83;;
37895;SDS011;23733;53.254;10.430;2022-10-16T13:55:52;2.13;;;0.90;;
37895;SDS011;23733;53.254;10.430;2022-10-16T13:58:19;6.80;;;1.73;;
37895;SDS011;23733;53.254;10.430;2022-10-16T14:00:58;3.23;;;1.03;;
37895;SDS011;23733;53.254;10.430;2022-10-16T14:03:25;3.90;;;1.17;;
37895;SDS011;23733;53.254;10.430;2022-10-16T14:05:52;2.07;;;0.90;;
37895;SDS011;23733;53.254;10.430;2022-10-16T14:08:20;2.97;;;1.33;;
37895;SDS011;23733;53.254;10.430;2022-10-16T14:10:47;7.10;;;1.20;;
37895;SDS011;23733;53.254;10.430;2022-10-16T14:13:15;3.47;;;1.20;;
37895;SDS011;23733;53.254;10.430;2022-10-16T14:15:45;3.03;;;1.23;;
37895;SDS011;23733;53.254;10.430;2022-10-16T14:18:17;2.70;;;1.10;;
37895;SDS011;23733;53.254;10.430;2022-10-16T14:20:44;2.67;;;1.10;;
37895;SDS011;23733;53.254;10.430;2022-10-16T14:23:23;3.57;;;1.10;;
37895;SDS011;23733;53.254;10.430;2022-10-16T14:28:38;3.00;;;1.30;;
37895;SDS011;23733;53.254;10.430;2022-10-16T14:33:52;4.80;;;0.93;;
37895;SDS011;23733;53.254;10.430;2022-10-16T14:36:18;3.67;;;1.10;;
37895;SDS011;23733;53.254;10.430;2022-10-16T14:41:24;4.10;;;1.00;;
37895;SDS011;23733;53.254;10.430;2022-10-16T14:43:51;4.47;;;1.43;;
37895;SDS011;23733;53.254;10.430;2022-10-16T14:46:20;5.43;;;1.33;;
37895;SDS011;23733;53.254;10.430;2022-10-16T14:48:59;2.80;;;1.40;;
37895;SDS011;23733;53.254;10.430;2022-10-16T14:51:35;4.47;;;1.40;;
37895;SDS011;23733;53.254;10.430;2022-10-16T14:54:10;4.07;;;1.10;;
37895;SDS011;23733;53.254;10.430;2022-10-16T14:56:50;3.83;;;1.23;;
37895;SDS011;23733;53.254;10.430;2022-10-16T14:59:27;2.53;;;1.00;;
37895;SDS011;23733;53.254;10.430;2022-10-16T15:02:00;2.90;;;1.00;;
37895;SDS011;23733;53.254;10.430;2022-10-16T15:04:39;5.20;;;1.20;;
37895;SDS011;23733;53.254;10.430;2022-10-16T15:07:06;2.90;;;1.00;;
37895;SDS011;23733;53.254;10.430;2022-10-16T15:09:33;4.97;;;1.10;;
37895;SDS011;23733;53.254;10.430;2022-10-16T15:11:59;5.13;;;1.17;;
37895;SDS011;23733;53.254;10.430;2022-10-16T15:14:25;6.03;;;1.47;;
37895;SDS011;23733;53.254;10.430;2022-10-16T15:16:51;5.17;;;1.27;;
37895;SDS011;23733;53.254;10.430;2022-10-16T15:19:17;3.17;;;1.17;;
37895;SDS011;23733;53.254;10.430;2022-10-16T15:21:43;3.67;;;1.40;;
37895;SDS011;23733;53.254;10.430;2022-10-16T15:24:11;4.50;;;1.30;;
37895;SDS011;23733;53.254;10.430;2022-10-16T15:26:38;2.77;;;1.10;;
37895;SDS011;23733;53.254;10.430;2022-10-16T15:29:04;4.27;;;1.27;;
37895;SDS011;23733;53.254;10.430;2022-10-16T15:31:31;5.43;;;1.30;;
37895;SDS011;23733;53.254;10.430;2022-10-16T15:33:57;3.93;;;1.30;;
37895;SDS011;23733;53.254;10.430;2022-10-16T15:36:29;4.93;;;1.30;;
37895;SDS011;23733;53.254;10.430;2022-10-16T15:38:59;7.70;;;1.53;;
37895;SDS011;23733;53.254;10.430;2022-10-16T15:41:25;6.60;;;1.37;;
37895;SDS011;23733;53.254;10.430;2022-10-16T15:43:51;5.27;;;1.47;;
37895;SDS011;23733;53.254;10.430;2022-10-16T15:46:18;5.77;;;1.30;;
37895;SDS011;23733;53.254;10.430;2022-10-16T15:48:46;3.20;;;1.40;;
37895;SDS011;23733;53.254;10.430;2022-10-16T15:51:13;3.47;;;1.20;;
37895;SDS011;23733;53.254;10.430;2022-10-16T15:53:39;4.40;;;1.40;;
37895;SDS011;23733;53.254;10.430;2022-10-16T15:56:06;3.10;;;1.80;;
37895;SDS011;23733;53.254;10.430;2022-10-16T15:58:33;5.20;;;1.83;;
37895;SDS011;23733;53.254;10.430;2022-10-16T16:01:00;3.83;;;1.30;;
37895;SDS011;23733;53.254;10.430;2022-10-16T16:03:27;4.67;;;1.40;;
37895;SDS011;23733;53.254;10.430;2022-10-16T16:05:54;3.90;;;1.40;;
37895;SDS011;23733;53.254;10.430;2022-10-16T16:08:20;4.23;;;1.47;;
37895;SDS011;23733;53.254;10.430;2022-10-16T16:10:56;2.57;;;1.47;;
37895;SDS011;23733;53.254;10.430;2022-10-16T16:13:24;4.37;;;1.67;;
37895;SDS011;23733;53.254;10.430;2022-10-16T16:15:50;1.93;;;1.20;;